Time;durP1;ratioP1;P1;durP2;ratioP2;P2;SDS_P1;SDS_P2;PMS_P1;PMS_P2;Temp;Humidity;BMP_temperature;BMP_pressure;BME280_temperature;BME280_humidity;BME280_pressure;Samples;Min_cycle;Max_cycle;Signal;HPM_P1;HPM_P2
2020/12/19 00:01:57;;;;;;;35.40;15.13;;;2.90;99.90;;;;;;5052229;28;20040;-60
2020/12/19 00:04:43;;;;;;;32.40;14.80;;;3.00;99.90;;;;;;5037190;28;20065;-60
2020/12/19 00:07:29;;;;;;;32.83;15.32;;;3.00;99.90;;;;;;5053496;28;20044;-60
2020/12/19 00:10:16;;;;;;;37.20;17.15;;;2.90;99.90;;;;;;5053166;28;20040;-60
2020/12/19 00:13:02;;;;;;;33.90;15.18;;;2.90;99.90;;;;;;5051945;28;20037;-59
2020/12/19 00:15:48;;;;;;;40.15;16.08;;;2.90;99.90;;;;;;5053003;28;20037;-60
2020/12/19 00:18:34;;;;;;;44.95;19.05;;;3.00;99.90;;;;;;5037618;28;20044;-60
2020/12/19 00:21:20;;;;;;;46.40;22.33;;;2.90;99.90;;;;;;5051917;28;20469;-60
2020/12/19 00:24:07;;;;;;;48.25;19.83;;;2.80;99.90;;;;;;5053131;28;20036;-59
2020/12/19 00:26:53;;;;;;;37.90;17.98;;;2.80;99.90;;;;;;5052178;28;20044;-59
2020/12/19 00:29:39;;;;;;;38.22;16.52;;;2.90;99.90;;;;;;5052056;28;20043;-60
2020/12/19 00:32:25;;;;;;;39.72;16.55;;;2.70;99.90;;;;;;5050506;28;20037;-59
2020/12/19 00:35:11;;;;;;;45.95;18.42;;;2.60;99.90;;;;;;5051849;28;20095;-59
2020/12/19 00:37:57;;;;;;;57.70;20.15;;;2.60;99.90;;;;;;5050352;28;20103;-59
2020/12/19 00:40:43;;;;;;;46.22;18.00;;;2.70;99.90;;;;;;5051674;28;20033;-58
2020/12/19 00:43:29;;;;;;;41.88;17.77;;;2.60;99.90;;;;;;5052154;28;20029;-59
2020/12/19 00:46:17;;;;;;;42.58;17.23;;;2.60;99.90;;;;;;5051977;28;20033;-59
2020/12/19 00:49:04;;;;;;;34.40;15.63;;;2.60;99.90;;;;;;5036895;28;20551;-59
2020/12/19 00:51:50;;;;;;;39.10;16.90;;;2.70;99.90;;;;;;5037168;28;20036;-59
2020/12/19 00:54:36;;;;;;;38.97;16.65;;;2.50;99.90;;;;;;5052177;28;20064;-59
2020/12/19 00:57:22;;;;;;;42.65;16.35;;;2.40;99.90;;;;;;5051609;28;20486;-59
2020/12/19 01:00:09;;;;;;;44.08;16.85;;;2.40;99.90;;;;;;5051332;28;20036;-59
2020/12/19 01:02:55;;;;;;;49.50;16.20;;;2.40;99.90;;;;;;5051817;28;20029;-59
2020/12/19 01:05:41;;;;;;;39.38;15.43;;;2.40;99.90;;;;;;5050027;28;20031;-59
2020/12/19 01:08:27;;;;;;;55.25;16.55;;;2.20;99.90;;;;;;5051186;28;20045;-59
2020/12/19 01:11:18;;;;;;;71.22;17.77;;;2.20;99.90;;;;;;5036356;28;20489;-59
2020/12/19 01:14:05;;;;;;;;;;;2.30;99.90;;;;;;5052413;28;20528;-59
2020/12/19 01:16:51;;;;;;;63.60;16.13;;;2.40;99.90;;;;;;5049177;28;19970;-58
2020/12/19 01:19:37;;;;;;;61.80;16.05;;;2.20;99.90;;;;;;5052272;28;20386;-59
2020/12/19 01:22:23;;;;;;;92.82;16.70;;;2.20;99.90;;;;;;5050781;28;20044;-60
2020/12/19 01:25:11;;;;;;;70.38;16.98;;;2.20;99.90;;;;;;5050016;28;20037;-60
2020/12/19 01:27:57;;;;;;;49.67;16.20;;;2.20;99.90;;;;;;5051934;28;20808;-59
2020/12/19 01:30:43;;;;;;;45.88;17.00;;;2.30;99.90;;;;;;5051369;28;20096;-60
2020/12/19 01:33:29;;;;;;;51.05;18.10;;;2.40;99.90;;;;;;5051154;28;20028;-59
2020/12/19 01:36:23;;;;;;;67.10;18.13;;;2.30;99.90;;;;;;5050585;28;20039;-60
2020/12/19 01:39:10;;;;;;;58.88;15.27;;;2.40;99.90;;;;;;5036391;28;20044;-60
2020/12/19 01:41:56;;;;;;;46.83;16.92;;;2.40;99.90;;;;;;5051385;28;20401;-60
2020/12/19 01:44:42;;;;;;;54.33;16.80;;;2.50;99.90;;;;;;5036144;28;20041;-60
2020/12/19 01:47:28;;;;;;;54.70;16.27;;;2.50;99.90;;;;;;5049875;28;20053;-59
2020/12/19 01:50:14;;;;;;;38.30;16.23;;;2.50;99.90;;;;;;5050430;28;20033;-60
2020/12/19 01:53:01;;;;;;;43.53;15.90;;;2.50;99.90;;;;;;5049797;28;20041;-60
2020/12/19 01:55:52;;;;;;;38.55;16.02;;;2.50;99.90;;;;;;5036530;28;20033;-60
2020/12/19 01:58:39;;;;;;;51.58;16.23;;;2.50;99.90;;;;;;5048957;28;20082;-60
2020/12/19 02:01:28;;;;;;;55.28;16.65;;;2.40;99.90;;;;;;5036187;28;20051;-59
2020/12/19 02:04:16;;;;;;;56.42;17.65;;;2.30;99.90;;;;;;5051684;28;20469;-60
2020/12/19 02:07:05;;;;;;;54.83;17.13;;;2.20;99.90;;;;;;5050368;28;20033;-59
2020/12/19 02:09:52;;;;;;;43.83;17.75;;;2.20;99.90;;;;;;5051685;28;20029;-59
2020/12/19 02:12:38;;;;;;;107.05;23.38;;;2.40;99.90;;;;;;5049798;28;20124;-59
2020/12/19 02:15:24;;;;;;;80.18;21.48;;;2.30;99.90;;;;;;5049469;28;20052;-59
2020/12/19 02:18:11;;;;;;;101.13;23.58;;;2.30;99.90;;;;;;5054960;28;20037;-60
2020/12/19 02:20:57;;;;;;;73.75;20.92;;;2.20;99.90;;;;;;5054974;28;20140;-59
2020/12/19 02:23:43;;;;;;;74.70;19.10;;;2.40;99.90;;;;;;5053648;28;20466;-60
2020/12/19 02:26:29;;;;;;;68.55;20.23;;;2.40;99.90;;;;;;5053987;28;20374;-59
2020/12/19 02:29:16;;;;;;;101.45;22.92;;;2.40;99.90;;;;;;5054674;28;20537;-60
2020/12/19 02:32:03;;;;;;;66.55;19.58;;;2.50;99.90;;;;;;5054397;28;20511;-59
2020/12/19 02:34:49;;;;;;;85.75;22.33;;;2.60;99.90;;;;;;5055034;28;20036;-60
2020/12/19 02:37:35;;;;;;;114.78;23.13;;;2.50;99.90;;;;;;5054128;28;20044;-59
2020/12/19 02:40:21;;;;;;;92.60;21.20;;;2.60;99.90;;;;;;5054545;28;20107;-60
2020/12/19 02:43:07;;;;;;;51.53;19.50;;;2.70;99.90;;;;;;5054814;28;20094;-60
2020/12/19 02:45:53;;;;;;;56.47;20.13;;;2.70;99.90;;;;;;5054534;28;20033;-60
2020/12/19 02:48:39;;;;;;;60.97;20.38;;;2.70;99.90;;;;;;5053139;28;20053;-60
2020/12/19 02:51:25;;;;;;;88.07;22.52;;;2.60;99.90;;;;;;5054558;28;20037;-60
2020/12/19 02:54:11;;;;;;;66.63;20.85;;;2.60;99.90;;;;;;5054340;28;20051;-59
2020/12/19 02:56:57;;;;;;;101.72;24.52;;;2.70;99.90;;;;;;5053709;28;20041;-60
2020/12/19 02:59:43;;;;;;;65.47;22.58;;;2.60;99.90;;;;;;5054723;28;20040;-60
2020/12/19 03:02:29;;;;;;;73.78;21.60;;;2.70;99.90;;;;;;5024979;28;20124;-60
2020/12/19 03:05:15;;;;;;;66.30;20.50;;;2.80;99.90;;;;;;5052311;28;20036;-60
2020/12/19 03:08:01;;;;;;;88.63;22.45;;;2.90;99.90;;;;;;5053523;28;20040;-60
2020/12/19 03:10:47;;;;;;;90.03;22.63;;;2.80;99.90;;;;;;5052836;28;20416;-60
2020/12/19 03:13:33;;;;;;;134.18;26.17;;;2.70;99.90;;;;;;5054029;28;20068;-60
2020/12/19 03:16:19;;;;;;;69.72;21.15;;;2.70;99.90;;;;;;5051872;28;20033;-60
2020/12/19 03:19:05;;;;;;;56.75;21.58;;;2.70;99.90;;;;;;5053846;28;20025;-59
2020/12/19 03:21:51;;;;;;;61.95;21.67;;;2.70;99.90;;;;;;5053961;28;20044;-60
2020/12/19 03:24:37;;;;;;;121.45;27.05;;;2.80;99.90;;;;;;5054950;28;20490;-60
2020/12/19 03:27:23;;;;;;;85.38;22.30;;;2.80;99.90;;;;;;5052540;28;20490;-58
2020/12/19 03:30:09;;;;;;;76.82;22.23;;;2.80;99.90;;;;;;5052779;28;20033;-60
2020/12/19 03:32:55;;;;;;;68.47;23.30;;;2.80;99.90;;;;;;5053608;28;20379;-60
2020/12/19 03:35:42;;;;;;;55.45;20.85;;;2.80;99.90;;;;;;5053386;28;20410;-60
2020/12/19 03:38:28;;;;;;;64.05;20.38;;;2.80;99.90;;;;;;5052703;28;20083;-60
2020/12/19 03:41:14;;;;;;;52.42;19.77;;;2.80;99.90;;;;;;5053036;28;20032;-60
2020/12/19 03:44:00;;;;;;;52.40;19.48;;;2.80;99.90;;;;;;5053435;28;20094;-61
2020/12/19 03:46:46;;;;;;;45.10;17.63;;;2.90;99.90;;;;;;5053087;28;20091;-60
2020/12/19 03:49:32;;;;;;;42.25;17.55;;;2.90;99.90;;;;;;5052802;28;20041;-60
2020/12/19 03:52:18;;;;;;;46.25;18.33;;;3.00;99.90;;;;;;5052698;28;20037;-60
2020/12/19 03:55:05;;;;;;;45.50;19.40;;;3.00;99.90;;;;;;5052252;28;20048;-60
2020/12/19 03:57:51;;;;;;;50.90;20.63;;;3.00;99.90;;;;;;5053560;28;20476;-60
2020/12/19 04:00:37;;;;;;;42.92;17.25;;;3.00;99.90;;;;;;5053045;28;20037;-60
2020/12/19 04:03:23;;;;;;;39.60;16.65;;;3.00;99.90;;;;;;5053229;28;20071;-60
2020/12/19 04:06:09;;;;;;;44.05;17.15;;;3.00;99.90;;;;;;5051518;28;20041;-60
2020/12/19 04:08:55;;;;;;;37.65;15.98;;;3.10;99.90;;;;;;5052531;28;20451;-60
2020/12/19 04:11:41;;;;;;;36.85;15.98;;;3.10;99.90;;;;;;5052015;28;20097;-60
2020/12/19 04:14:37;;;;;;;33.83;16.40;;;3.00;99.90;;;;;;5052423;28;20059;-60
2020/12/19 04:17:23;;;;;;;35.28;15.18;;;2.90;99.90;;;;;;5052576;28;20047;-60
2020/12/19 04:20:09;;;;;;;35.83;14.38;;;2.80;99.90;;;;;;5052200;28;20033;-60
2020/12/19 04:22:55;;;;;;;32.13;14.98;;;2.70;99.90;;;;;;5051960;28;20037;-59
2020/12/19 04:25:41;;;;;;;37.88;14.75;;;2.50;99.90;;;;;;5037984;28;20048;-59
2020/12/19 04:28:28;;;;;;;27.02;12.98;;;2.40;99.90;;;;;;5051842;28;20033;-60
2020/12/19 04:31:14;;;;;;;29.23;13.95;;;2.40;99.90;;;;;;5052802;28;20087;-60
2020/12/19 04:34:00;;;;;;;31.52;13.80;;;2.30;99.90;;;;;;5053263;28;20037;-60
2020/12/19 04:36:46;;;;;;;30.83;13.70;;;2.20;99.90;;;;;;5052402;28;20128;-60
2020/12/19 04:39:32;;;;;;;27.65;13.77;;;2.20;99.90;;;;;;5037762;28;20120;-60
2020/12/19 04:42:20;;;;;;;28.17;12.52;;;2.20;99.90;;;;;;5052240;28;20409;-60
2020/12/19 04:45:06;;;;;;;29.02;13.10;;;2.30;99.90;;;;;;5051158;28;20043;-61
2020/12/19 04:47:52;;;;;;;29.23;13.38;;;2.30;99.90;;;;;;5052630;28;20131;-60
2020/12/19 04:50:40;;;;;;;27.67;12.75;;;2.20;99.90;;;;;;5036701;28;20021;-61
2020/12/19 04:53:25;;;;;;;26.25;13.10;;;2.20;99.90;;;;;;5050768;28;20465;-60
2020/12/19 04:56:14;;;;;;;28.15;13.18;;;2.20;99.90;;;;;;5051081;28;20048;-60
2020/12/19 04:59:03;;;;;;;25.75;12.65;;;2.00;99.90;;;;;;5038044;28;20076;-61
2020/12/19 05:01:49;;;;;;;26.55;12.85;;;2.10;99.90;;;;;;5051886;28;20032;-60
2020/12/19 05:04:41;;;;;;;28.00;13.82;;;2.20;99.90;;;;;;5050290;28;20512;-59
2020/12/19 05:07:27;;;;;;;24.17;11.45;;;2.10;99.90;;;;;;5052446;28;20140;-59
2020/12/19 05:10:14;;;;;;;22.33;11.48;;;2.10;99.90;;;;;;5050250;28;20037;-59
2020/12/19 05:13:00;;;;;;;26.00;11.57;;;2.00;99.90;;;;;;5037639;28;20087;-59
2020/12/19 05:15:46;;;;;;;104.07;39.30;;;1.70;99.90;;;;;;5052105;28;20047;-59
2020/12/19 05:18:35;;;;;;;37.58;17.40;;;1.80;99.90;;;;;;5051690;28;20029;-59
2020/12/19 05:21:23;;;;;;;24.88;11.98;;;1.80;99.90;;;;;;5051631;28;20431;-60
2020/12/19 05:24:15;;;;;;;26.10;12.18;;;1.80;99.90;;;;;;5051724;28;20398;-60
2020/12/19 05:27:04;;;;;;;23.55;11.82;;;1.70;99.90;;;;;;5032193;28;20040;-59
2020/12/19 05:29:50;;;;;;;26.75;11.80;;;1.80;99.90;;;;;;5031082;28;20041;-59
2020/12/19 05:32:46;;;;;;;23.13;10.93;;;1.90;99.90;;;;;;5030328;28;20037;-59
2020/12/19 05:35:34;;;;;;;24.95;10.98;;;1.80;99.90;;;;;;5031199;28;20037;-59
2020/12/19 05:38:20;;;;;;;22.85;11.52;;;1.90;99.90;;;;;;5017272;28;20077;-60
2020/12/19 05:41:13;;;;;;;23.15;11.50;;;1.80;99.90;;;;;;5030948;28;20038;-60
2020/12/19 05:43:59;;;;;;;26.35;11.50;;;1.80;99.90;;;;;;5031449;28;20042;-59
2020/12/19 05:46:46;;;;;;;28.88;11.95;;;1.80;99.90;;;;;;5031233;28;20056;-60
2020/12/19 05:49:32;;;;;;;20.88;11.10;;;1.90;99.90;;;;;;5031390;28;20414;-59
2020/12/19 05:52:22;;;;;;;23.80;10.90;;;2.00;99.90;;;;;;5022911;28;20449;-60
2020/12/19 05:55:14;;;;;;;24.60;10.60;;;1.90;99.90;;;;;;5029141;28;20401;-60
2020/12/19 05:58:03;;;;;;;24.40;11.90;;;2.00;99.90;;;;;;5057729;28;20033;-60
2020/12/19 06:00:50;;;;;;;23.02;12.48;;;2.00;99.90;;;;;;5055389;28;20037;-59
2020/12/19 06:03:39;;;;;;;26.42;12.75;;;1.90;99.90;;;;;;5042884;28;20036;-60
2020/12/19 06:06:25;;;;;;;25.65;11.98;;;1.90;99.90;;;;;;5043298;28;20033;-59
2020/12/19 06:09:13;;;;;;;23.73;13.27;;;2.10;99.90;;;;;;5056737;28;20043;-60
2020/12/19 06:12:13;;;;;;;24.08;11.77;;;2.30;99.90;;;;;;5056591;28;20118;-58
2020/12/19 06:15:04;;;;;;;21.95;11.68;;;2.30;99.90;;;;;;5042157;28;20112;-63
2020/12/19 06:17:58;;;;;;;21.17;12.02;;;2.30;99.90;;;;;;5058145;28;20149;-60
2020/12/19 06:20:45;;;;;;;24.40;11.85;;;2.30;99.90;;;;;;5028906;28;20048;-60
2020/12/19 06:23:36;;;;;;;24.65;12.35;;;2.20;99.90;;;;;;5056973;28;20442;-61
2020/12/19 06:26:36;;;;;;;23.45;11.73;;;2.10;99.90;;;;;;5056656;28;20084;-61
2020/12/19 06:29:36;;;;;;;19.83;11.15;;;2.20;99.90;;;;;;5056263;28;20052;-61
2020/12/19 06:32:25;;;;;;;21.30;10.68;;;2.20;99.90;;;;;;5057391;28;20494;-60
2020/12/19 06:35:11;;;;;;;21.58;11.20;;;2.20;99.90;;;;;;5056810;28;20405;-61
2020/12/19 06:37:57;;;;;;;26.27;12.35;;;2.20;99.90;;;;;;5056465;28;20045;-60
2020/12/19 06:40:43;;;;;;;20.65;10.32;;;2.10;99.90;;;;;;5042553;28;20029;-60
2020/12/19 06:43:29;;;;;;;19.95;9.57;;;2.10;99.90;;;;;;5055745;28;20029;-62
2020/12/19 06:46:31;;;;;;;18.13;9.50;;;2.00;99.90;;;;;;5056702;28;20462;-60
2020/12/19 06:49:27;;;;;;;18.38;9.50;;;2.00;99.90;;;;;;5055935;28;20429;-60
2020/12/19 06:52:14;;;;;;;19.35;9.65;;;1.90;99.90;;;;;;5057920;28;20060;-61
2020/12/19 06:55:18;;;;;;;20.20;10.77;;;1.80;99.90;;;;;;5055955;28;20123;-61
2020/12/19 06:58:04;;;;;;;18.23;10.13;;;1.80;99.90;;;;;;5056070;28;20053;-58
2020/12/19 07:00:50;;;;;;;18.85;9.98;;;1.80;99.90;;;;;;5056859;28;20021;-60
2020/12/19 07:03:38;;;;;;;19.77;10.48;;;1.80;99.90;;;;;;5055221;28;20029;-61
2020/12/19 07:06:24;;;;;;;21.77;10.73;;;1.80;99.90;;;;;;5054067;28;20114;-60
2020/12/19 07:09:29;;;;;;;19.95;10.75;;;1.80;99.90;;;;;;5053874;28;20040;-60
2020/12/19 07:12:38;;;;;;;18.55;10.40;;;1.70;99.90;;;;;;5053495;28;20040;-60
2020/12/19 07:15:45;;;;;;;19.20;9.73;;;1.80;99.90;;;;;;5055293;28;20032;-60
2020/12/19 07:18:34;;;;;;;21.90;10.15;;;1.80;99.90;;;;;;5040336;28;20037;-61
2020/12/19 07:21:20;;;;;;;19.30;9.88;;;1.80;99.90;;;;;;5039520;28;20041;-60
2020/12/19 07:24:06;;;;;;;22.70;10.57;;;1.90;99.90;;;;;;5053171;28;20033;-59
2020/12/19 07:26:53;;;;;;;18.38;9.80;;;1.90;99.90;;;;;;5033575;28;20049;-60
2020/12/19 07:29:39;;;;;;;18.58;9.50;;;1.80;99.90;;;;;;5033208;28;20119;-60
2020/12/19 07:32:26;;;;;;;18.10;9.77;;;1.90;99.90;;;;;;5033058;28;20175;-60
2020/12/19 07:35:12;;;;;;;18.88;10.98;;;1.80;99.90;;;;;;5042837;28;20450;-60
2020/12/19 07:37:59;;;;;;;21.58;10.98;;;1.70;99.90;;;;;;5053639;28;20120;-60
2020/12/19 07:40:51;;;;;;;19.65;10.95;;;1.70;99.90;;;;;;5038987;28;20041;-60
2020/12/19 07:43:37;;;;;;;19.40;10.57;;;1.80;99.90;;;;;;5039962;28;20111;-65
2020/12/19 07:46:23;;;;;;;19.70;10.50;;;1.80;99.90;;;;;;5052682;28;20393;-67
2020/12/19 07:49:09;;;;;;;19.80;10.43;;;1.90;99.90;;;;;;5038852;28;20060;-60
2020/12/19 07:52:10;;;;;;;16.65;9.70;;;1.90;99.90;;;;;;5052670;28;20033;-60
2020/12/19 07:55:03;;;;;;;20.45;10.48;;;2.00;99.90;;;;;;5054246;28;20037;-61
2020/12/19 07:57:54;;;;;;;19.48;9.25;;;2.00;99.90;;;;;;5051771;28;20727;-60
2020/12/19 08:00:40;;;;;;;17.77;9.63;;;1.90;99.90;;;;;;5051349;28;20432;-60
2020/12/19 08:03:26;;;;;;;17.17;9.73;;;1.80;99.90;;;;;;5052555;28;20413;-65
2020/12/19 08:06:12;;;;;;;18.08;10.10;;;1.80;99.90;;;;;;5051346;28;20111;-61
2020/12/19 08:08:58;;;;;;;18.40;9.95;;;1.80;99.90;;;;;;5037416;28;20040;-60
2020/12/19 08:11:51;;;;;;;19.65;9.90;;;1.80;99.90;;;;;;5052218;28;20127;-60
2020/12/19 08:14:39;;;;;;;16.70;9.77;;;2.00;99.90;;;;;;5051660;28;20049;-60
2020/12/19 08:17:26;;;;;;;16.77;9.35;;;2.30;99.90;;;;;;5051801;28;20502;-61
2020/12/19 08:20:15;;;;;;;20.20;10.25;;;2.30;99.90;;;;;;5049906;28;20099;-61
2020/12/19 08:23:07;;;;;;;18.75;9.80;;;2.50;99.90;;;;;;5052543;28;20036;-61
2020/12/19 08:25:53;;;;;;;18.55;10.15;;;2.80;99.90;;;;;;5049864;28;20037;-60
2020/12/19 08:28:39;;;;;;;18.60;9.82;;;2.90;99.90;;;;;;5051466;28;20024;-60
2020/12/19 08:31:26;;;;;;;17.35;10.52;;;3.10;99.90;;;;;;5037049;28;20045;-59
2020/12/19 08:34:12;;;;;;;19.13;10.02;;;3.20;99.90;;;;;;5050521;28;20374;-59
2020/12/19 08:36:58;;;;;;;19.52;9.95;;;3.30;99.90;;;;;;5052778;28;20106;-59
2020/12/19 08:40:17;;;;;;;18.88;10.30;;;3.30;99.90;;;;;;5053272;28;20044;-60
2020/12/19 08:43:04;;;;;;;75.38;34.03;;;3.50;99.90;;;;;;5051764;28;20044;-60
2020/12/19 08:45:51;;;;;;;24.35;13.68;;;3.70;99.90;;;;;;5052385;28;20041;-60
2020/12/19 08:48:37;;;;;;;24.35;13.25;;;3.80;99.90;;;;;;5051096;28;20050;-60
2020/12/19 08:51:23;;;;;;;24.35;12.77;;;3.80;99.90;;;;;;5052436;28;20033;-61
2020/12/19 08:54:10;;;;;;;27.40;13.95;;;4.00;99.90;;;;;;5036500;28;20033;-60
2020/12/19 08:56:56;;;;;;;24.25;12.80;;;4.10;99.90;;;;;;5052417;28;20052;-60
2020/12/19 08:59:42;;;;;;;26.42;12.50;;;4.00;99.90;;;;;;5036823;28;20508;-68
2020/12/19 09:02:29;;;;;;;27.58;14.32;;;4.20;99.90;;;;;;5050174;28;20033;-60
2020/12/19 09:05:15;;;;;;;25.45;12.68;;;4.40;99.90;;;;;;5052336;28;20041;-59
2020/12/19 09:08:02;;;;;;;20.52;11.82;;;4.50;99.90;;;;;;5051991;28;20049;-60
2020/12/19 09:10:48;;;;;;;21.55;11.48;;;4.50;99.90;;;;;;5035956;28;20493;-59
2020/12/19 09:13:36;;;;;;;19.42;11.45;;;4.60;99.90;;;;;;5036127;28;20067;-59
2020/12/19 09:16:22;;;;;;;21.05;11.13;;;4.60;99.90;;;;;;5051513;28;20025;-58
2020/12/19 09:19:14;;;;;;;22.80;11.45;;;4.60;99.90;;;;;;5050701;28;20099;-58
2020/12/19 09:22:05;;;;;;;19.48;10.82;;;4.40;99.90;;;;;;5037833;28;20201;-59
2020/12/19 09:24:51;;;;;;;20.02;9.80;;;4.50;99.90;;;;;;5022953;28;20132;-58
2020/12/19 09:27:37;;;;;;;18.65;11.95;;;4.70;99.90;;;;;;5050872;28;20040;-59
2020/12/19 09:30:23;;;;;;;41.78;21.08;;;4.60;99.90;;;;;;5050806;28;20033;-55
2020/12/19 09:33:10;;;;;;;24.80;12.48;;;4.80;99.90;;;;;;5051217;28;20061;-60
2020/12/19 09:35:56;;;;;;;17.48;9.90;;;5.10;99.90;;;;;;5050139;28;20132;-59
2020/12/19 09:38:42;;;;;;;19.40;10.02;;;5.10;99.90;;;;;;5051237;28;20043;-59
2020/12/19 09:41:28;;;;;;;19.88;11.27;;;5.20;99.90;;;;;;5049518;28;20628;-58
2020/12/19 09:44:14;;;;;;;20.10;11.65;;;5.40;99.90;;;;;;5051254;28;20113;-59
2020/12/19 09:47:00;;;;;;;19.60;11.57;;;5.80;99.90;;;;;;5051300;28;20045;-59
2020/12/19 09:49:46;;;;;;;15.77;9.75;;;6.40;99.90;;;;;;5050320;28;20421;-60
2020/12/19 09:52:32;;;;;;;12.88;8.70;;;7.40;99.90;;;;;;5051118;28;20220;-60
2020/12/19 09:55:18;;;;;;;14.68;8.57;;;9.70;99.90;;;;;;5051419;28;20041;-60
2020/12/19 09:58:04;;;;;;;15.20;7.55;;;10.70;99.90;;;;;;5050904;28;20045;-60
2020/12/19 10:00:50;;;;;;;10.95;6.80;;;13.40;99.90;;;;;;5050304;28;20106;-59
2020/12/19 10:03:36;;;;;;;10.90;6.30;;;13.30;99.90;;;;;;5050958;28;20498;-59
2020/12/19 10:06:22;;;;;;;10.68;5.82;;;12.10;99.90;;;;;;5051030;28;20379;-59
2020/12/19 10:09:08;;;;;;;12.57;5.85;;;10.80;99.90;;;;;;5050175;28;20049;-59
2020/12/19 10:11:56;;;;;;;8.02;5.00;;;10.00;99.90;;;;;;5051192;28;20040;-59
2020/12/19 10:14:42;;;;;;;10.50;4.90;;;9.60;99.90;;;;;;5048608;28;20037;-58
2020/12/19 10:17:28;;;;;;;7.70;4.43;;;9.40;99.90;;;;;;5049538;28;20168;-60
2020/12/19 10:20:14;;;;;;;8.80;4.10;;;9.20;99.90;;;;;;5050442;28;20669;-60
2020/12/19 10:23:00;;;;;;;8.90;4.60;;;9.10;99.90;;;;;;5048366;28;20486;-60
2020/12/19 10:25:46;;;;;;;6.50;3.92;;;9.10;99.90;;;;;;5049505;28;20037;-60
2020/12/19 10:28:32;;;;;;;6.47;3.67;;;9.10;99.90;;;;;;5049015;28;20124;-59
2020/12/19 10:31:18;;;;;;;6.25;4.22;;;9.10;99.90;;;;;;5036273;28;20035;-59
2020/12/19 10:34:05;;;;;;;8.80;4.13;;;9.20;99.90;;;;;;5050682;28;20040;-59
2020/12/19 10:36:54;;;;;;;8.63;4.53;;;9.20;99.90;;;;;;5049655;28;20037;-58
2020/12/19 10:39:40;;;;;;;9.27;5.10;;;9.20;99.90;;;;;;5054736;28;20048;-56
2020/12/19 10:42:26;;;;;;;8.82;4.53;;;9.30;99.90;;;;;;5055360;28;20119;-58
2020/12/19 10:45:12;;;;;;;7.05;4.60;;;9.30;99.90;;;;;;5054536;28;20560;-57
2020/12/19 10:47:58;;;;;;;11.43;5.28;;;9.40;99.90;;;;;;5052777;28;20057;-56
2020/12/19 10:50:44;;;;;;;8.85;4.28;;;9.30;99.90;;;;;;5052948;28;20124;-58
2020/12/19 10:53:30;;;;;;;9.23;5.20;;;9.30;99.90;;;;;;5054907;28;20035;-57
2020/12/19 10:56:21;;;;;;;7.97;4.72;;;9.30;99.90;;;;;;5054823;28;20040;-56
2020/12/19 10:59:07;;;;;;;8.38;4.65;;;9.40;99.90;;;;;;5053740;28;20071;-57
2020/12/19 11:01:53;;;;;;;8.48;5.13;;;9.50;99.90;;;;;;5053509;28;20068;-58
2020/12/19 11:04:39;;;;;;;7.68;4.50;;;9.60;99.90;;;;;;5033696;28;20025;-57
2020/12/19 11:07:25;;;;;;;11.18;4.47;;;9.60;99.90;;;;;;5020024;28;20041;-57
2020/12/19 11:10:11;;;;;;;9.07;5.30;;;9.60;99.90;;;;;;5033551;28;20042;-58
2020/12/19 11:12:58;;;;;;;9.45;4.63;;;9.60;99.90;;;;;;5034753;28;20033;-60
2020/12/19 11:15:44;;;;;;;8.75;4.88;;;9.60;99.90;;;;;;5032905;28;20040;-57
2020/12/19 11:18:30;;;;;;;12.00;5.25;;;9.80;99.90;;;;;;5032576;28;20494;-58
2020/12/19 11:21:17;;;;;;;8.43;5.25;;;10.10;99.90;;;;;;5033189;28;20040;-59
2020/12/19 11:24:03;;;;;;;11.35;5.30;;;10.00;99.90;;;;;;5039115;28;20036;-58
2020/12/19 11:26:49;;;;;;;8.98;5.00;;;9.90;99.90;;;;;;5052215;28;20064;-59
2020/12/19 11:29:35;;;;;;;9.27;5.38;;;9.90;99.90;;;;;;5053688;28;20444;-59
2020/12/19 11:32:23;;;;;;;8.65;5.18;;;10.00;99.90;;;;;;5054042;28;20036;-58
2020/12/19 11:35:09;;;;;;;7.53;4.85;;;10.00;99.90;;;;;;5037082;28;20029;-59
2020/12/19 11:37:55;;;;;;;9.02;4.70;;;10.20;99.90;;;;;;5053013;28;20041;-58
2020/12/19 11:40:41;;;;;;;9.60;5.57;;;10.20;99.90;;;;;;5052999;28;20033;-58
2020/12/19 11:43:27;;;;;;;13.85;5.75;;;10.10;99.90;;;;;;5053324;28;20069;-59
2020/12/19 11:46:13;;;;;;;8.10;5.03;;;10.20;99.90;;;;;;5052749;28;20033;-59
2020/12/19 11:49:00;;;;;;;8.15;4.63;;;10.10;99.90;;;;;;5051376;28;20060;-58
2020/12/19 11:51:46;;;;;;;8.70;4.85;;;10.20;99.90;;;;;;5037887;28;20048;-58
2020/12/19 11:54:32;;;;;;;8.05;4.80;;;10.30;99.90;;;;;;5054093;28;20039;-59
2020/12/19 11:57:18;;;;;;;6.55;4.05;;;10.50;99.90;;;;;;5052978;28;20037;-58
2020/12/19 12:00:06;;;;;;;7.63;4.38;;;10.40;99.90;;;;;;5053060;28;20409;-59
2020/12/19 12:02:52;;;;;;;5.43;3.85;;;10.80;99.90;;;;;;5050539;28;20036;-59
2020/12/19 12:05:38;;;;;;;7.10;4.57;;;11.10;99.90;;;;;;5052902;28;20037;-59
2020/12/19 12:08:24;;;;;;;7.25;4.13;;;11.30;99.90;;;;;;5052952;28;20040;-58
2020/12/19 12:11:10;;;;;;;7.28;3.92;;;12.40;99.90;;;;;;5054103;28;20433;-57
2020/12/19 12:13:57;;;;;;;6.63;3.60;;;12.80;99.90;;;;;;5053113;28;20029;-58
2020/12/19 12:16:43;;;;;;;5.38;3.50;;;12.40;99.90;;;;;;5052164;28;20116;-63
2020/12/19 12:19:29;;;;;;;8.43;3.83;;;12.90;99.90;;;;;;5052611;28;20065;-58
2020/12/19 12:22:15;;;;;;;5.93;3.60;;;12.90;99.90;;;;;;5052621;28;20482;-59
2020/12/19 12:25:02;;;;;;;6.50;3.58;;;12.50;99.90;;;;;;5037479;28;20493;-59
2020/12/19 12:27:48;;;;;;;5.50;3.22;;;12.50;99.90;;;;;;5053392;28;20124;-59
2020/12/19 12:30:34;;;;;;;7.00;3.63;;;12.30;99.90;;;;;;5053150;28;20036;-59
2020/12/19 12:33:20;;;;;;;6.93;3.60;;;11.80;99.90;;;;;;5049729;28;20044;-58
2020/12/19 12:36:08;;;;;;;7.68;3.90;;;11.40;99.90;;;;;;5049841;28;20057;-60
2020/12/19 12:38:54;;;;;;;7.32;3.38;;;11.10;99.90;;;;;;5036163;28;20077;-60
2020/12/19 12:41:45;;;;;;;6.35;3.67;;;11.00;99.90;;;;;;5052408;28;20090;-60
2020/12/19 12:44:31;;;;;;;7.60;3.92;;;10.90;99.90;;;;;;5051848;28;20041;-59
2020/12/19 12:47:18;;;;;;;5.85;3.13;;;10.80;99.90;;;;;;5053025;28;20033;-58
2020/12/19 12:50:04;;;;;;;6.03;3.70;;;10.70;99.90;;;;;;5052056;28;20037;-63
2020/12/19 12:52:50;;;;;;;6.60;3.92;;;10.60;99.90;;;;;;5052196;28;20049;-59
2020/12/19 12:55:36;;;;;;;8.13;3.70;;;10.50;99.90;;;;;;5053026;28;20029;-61
2020/12/19 12:58:23;;;;;;;8.60;4.28;;;10.50;99.90;;;;;;5051939;28;20041;-60
2020/12/19 13:01:09;;;;;;;8.77;4.28;;;10.50;99.90;;;;;;5050874;28;20028;-59
2020/12/19 13:03:55;;;;;;;7.93;3.97;;;10.40;99.90;;;;;;5051499;28;20073;-60
2020/12/19 13:06:41;;;;;;;7.18;3.75;;;10.20;99.90;;;;;;5052317;28;20112;-59
2020/12/19 13:09:27;;;;;;;7.55;3.78;;;10.20;99.90;;;;;;5051867;28;20537;-60
2020/12/19 13:12:13;;;;;;;8.30;4.20;;;10.10;99.90;;;;;;5037475;28;20037;-60
2020/12/19 13:14:59;;;;;;;6.35;3.60;;;10.10;99.90;;;;;;5037561;28;20043;-61
2020/12/19 13:17:45;;;;;;;6.90;3.78;;;10.10;99.90;;;;;;5052003;28;20044;-60
2020/12/19 13:20:32;;;;;;;6.00;3.40;;;10.10;99.90;;;;;;5037267;28;20051;-60
2020/12/19 13:23:19;;;;;;;7.88;3.80;;;10.30;99.90;;;;;;5051317;28;20040;-60
2020/12/19 13:26:06;;;;;;;7.32;3.40;;;10.50;99.90;;;;;;5051524;28;20056;-59
2020/12/19 13:28:52;;;;;;;6.95;3.67;;;10.50;99.90;;;;;;5036264;28;20489;-59
2020/12/19 13:31:49;;;;;;;5.75;3.28;;;10.60;99.90;;;;;;5050824;28;20044;-60
2020/12/19 13:34:35;;;;;;;5.20;3.22;;;10.80;99.90;;;;;;5034597;28;20449;-60
2020/12/19 13:37:21;;;;;;;8.38;3.35;;;10.80;99.90;;;;;;5051561;28;20041;-60
2020/12/19 13:40:07;;;;;;;7.82;3.78;;;11.00;99.90;;;;;;5051147;28;20182;-60
2020/12/19 13:42:53;;;;;;;7.53;3.35;;;11.20;99.90;;;;;;5050744;28;20044;-60
2020/12/19 13:45:39;;;;;;;5.15;3.13;;;11.10;99.90;;;;;;5050450;28;20040;-60
2020/12/19 13:48:25;;;;;;;6.38;3.35;;;11.00;99.90;;;;;;5050863;28;20045;-60
2020/12/19 13:51:11;;;;;;;6.85;3.50;;;10.90;99.90;;;;;;5036937;28;20090;-60
2020/12/19 13:53:58;;;;;;;5.97;3.30;;;10.70;99.90;;;;;;5051195;28;20052;-60
2020/12/19 13:56:44;;;;;;;8.02;4.22;;;10.60;99.90;;;;;;5050788;28;20044;-60
2020/12/19 13:59:30;;;;;;;8.13;3.83;;;10.50;99.90;;;;;;5051877;28;20033;-60
2020/12/19 14:02:16;;;;;;;9.00;5.10;;;10.40;99.90;;;;;;5049876;28;20107;-61
2020/12/19 14:05:03;;;;;;;7.25;4.50;;;10.30;99.90;;;;;;5051319;28;20037;-61
2020/12/19 14:07:49;;;;;;;7.78;4.03;;;10.30;99.90;;;;;;5050232;28;20124;-62
2020/12/19 14:10:35;;;;;;;10.27;5.93;;;10.20;99.90;;;;;;5037249;28;20570;-61
2020/12/19 14:13:21;;;;;;;9.23;3.70;;;10.20;99.90;;;;;;5053052;28;20037;-61
2020/12/19 14:16:07;;;;;;;5.80;3.30;;;10.20;99.90;;;;;;5056063;28;20602;-60
2020/12/19 14:18:53;;;;;;;6.63;3.63;;;10.10;99.90;;;;;;5054464;28;20073;-60
2020/12/19 14:21:39;;;;;;;5.40;3.50;;;10.10;99.90;;;;;;5056121;28;20033;-65
2020/12/19 14:24:26;;;;;;;8.13;3.70;;;10.10;99.90;;;;;;5040598;28;20061;-61